sensor_id;sensor_type;location;lat;lon;timestamp;pressure;altitude;pressure_sealevel;temperature;humidity
52185;BME280;38160;52.876;18.778;2023-03-03T00:01:21;101333.14;;;-1.45;94.93
52185;BME280;38160;52.876;18.778;2023-03-03T00:03:59;101335.05;;;-1.41;94.91
52185;BME280;38160;52.876;18.778;2023-03-03T00:06:35;101326.78;;;-1.37;94.75
52185;BME280;38160;52.876;18.778;2023-03-03T00:09:11;101326.80;;;-1.38;94.57
52185;BME280;38160;52.876;18.778;2023-03-03T00:11:49;101321.06;;;-1.40;94.87
52185;BME280;38160;52.876;18.778;2023-03-03T00:14:34;101315.55;;;-1.42;94.60
52185;BME280;38160;52.876;18.778;2023-03-03T00:17:24;101317.59;;;-1.45;94.29
52185;BME280;38160;52.876;18.778;2023-03-03T00:23:22;101306.13;;;-1.45;94.58
52185;BME280;38160;52.876;18.778;2023-03-03T00:26:01;101306.95;;;-1.44;94.97
52185;BME280;38160;52.876;18.778;2023-03-03T00:28:45;101300.27;;;-1.40;94.99
52185;BME280;38160;52.876;18.778;2023-03-03T00:31:23;101301.83;;;-1.37;94.96
52185;BME280;38160;52.876;18.778;2023-03-03T00:34:26;101300.21;;;-1.39;94.64
52185;BME280;38160;52.876;18.778;2023-03-03T00:37:27;101291.85;;;-1.46;94.85
52185;BME280;38160;52.876;18.778;2023-03-03T00:40:21;101283.98;;;-1.47;95.03
52185;BME280;38160;52.876;18.778;2023-03-03T00:43:00;101281.98;;;-1.50;95.14
52185;BME280;38160;52.876;18.778;2023-03-03T00:45:42;101273.91;;;-1.47;95.31
52185;BME280;38160;52.876;18.778;2023-03-03T00:48:24;101270.42;;;-1.44;95.22
52185;BME280;38160;52.876;18.778;2023-03-03T00:51:01;101260.01;;;-1.44;95.31
52185;BME280;38160;52.876;18.778;2023-03-03T00:53:41;101257.67;;;-1.47;95.23
52185;BME280;38160;52.876;18.778;2023-03-03T00:56:18;101256.52;;;-1.48;95.20
52185;BME280;38160;52.876;18.778;2023-03-03T00:58:54;101251.31;;;-1.51;95.63
52185;BME280;38160;52.876;18.778;2023-03-03T01:01:30;101245.36;;;-1.51;94.99
52185;BME280;38160;52.876;18.778;2023-03-03T01:04:07;101240.50;;;-1.53;95.19
52185;BME280;38160;52.876;18.778;2023-03-03T01:06:43;101248.32;;;-1.55;95.17
52185;BME280;38160;52.876;18.778;2023-03-03T01:09:19;101248.08;;;-1.57;95.29
52185;BME280;38160;52.876;18.778;2023-03-03T01:11:55;101247.75;;;-1.57;95.29
52185;BME280;38160;52.876;18.778;2023-03-03T01:14:39;101248.80;;;-1.57;95.33
52185;BME280;38160;52.876;18.778;2023-03-03T01:17:20;101239.98;;;-1.57;95.88
52185;BME280;38160;52.876;18.778;2023-03-03T01:19:56;101237.63;;;-1.56;95.46
52185;BME280;38160;52.876;18.778;2023-03-03T01:22:32;101237.27;;;-1.60;95.28
52185;BME280;38160;52.876;18.778;2023-03-03T01:25:09;101236.83;;;-1.58;95.75
52185;BME280;38160;52.876;18.778;2023-03-03T01:27:46;101239.16;;;-1.59;95.78
52185;BME280;38160;52.876;18.778;2023-03-03T01:30:23;101238.35;;;-1.57;95.77
52185;BME280;38160;52.876;18.778;2023-03-03T01:33:00;101242.27;;;-1.57;95.44
52185;BME280;38160;52.876;18.778;2023-03-03T01:35:36;101242.92;;;-1.60;95.49
52185;BME280;38160;52.876;18.778;2023-03-03T01:38:14;101236.73;;;-1.59;96.00
52185;BME280;38160;52.876;18.778;2023-03-03T01:40:54;101239.91;;;-1.60;95.70
52185;BME280;38160;52.876;18.778;2023-03-03T01:43:32;101239.40;;;-1.63;95.75
52185;BME280;38160;52.876;18.778;2023-03-03T01:46:33;101237.66;;;-1.60;96.11
52185;BME280;38160;52.876;18.778;2023-03-03T01:49:20;101238.67;;;-1.60;95.51
52185;BME280;38160;52.876;18.778;2023-03-03T01:52:16;101235.84;;;-1.63;95.77
52185;BME280;38160;52.876;18.778;2023-03-03T01:54:59;101235.80;;;-1.62;95.97
52185;BME280;38160;52.876;18.778;2023-03-03T01:57:41;101240.13;;;-1.60;95.63
52185;BME280;38160;52.876;18.778;2023-03-03T02:00:20;101234.83;;;-1.68;95.52
52185;BME280;38160;52.876;18.778;2023-03-03T02:02:56;101232.63;;;-1.70;96.19
52185;BME280;38160;52.876;18.778;2023-03-03T02:05:33;101231.20;;;-1.69;95.94
52185;BME280;38160;52.876;18.778;2023-03-03T02:08:14;101237.67;;;-1.72;96.39
52185;BME280;38160;52.876;18.778;2023-03-03T02:10:52;101244.16;;;-1.71;96.40
52185;BME280;38160;52.876;18.778;2023-03-03T02:13:28;101238.05;;;-1.72;96.05
52185;BME280;38160;52.876;18.778;2023-03-03T02:16:05;101236.70;;;-1.74;96.20
52185;BME280;38160;52.876;18.778;2023-03-03T02:18:41;101240.10;;;-1.75;96.41
52185;BME280;38160;52.876;18.778;2023-03-03T02:21:20;101244.98;;;-1.73;96.26
52185;BME280;38160;52.876;18.778;2023-03-03T02:24:02;101245.06;;;-1.72;96.70
52185;BME280;38160;52.876;18.778;2023-03-03T02:26:41;101238.31;;;-1.67;96.98
52185;BME280;38160;52.876;18.778;2023-03-03T02:29:18;101231.34;;;-1.65;96.83
52185;BME280;38160;52.876;18.778;2023-03-03T02:31:54;101219.95;;;-1.63;97.01
52185;BME280;38160;52.876;18.778;2023-03-03T02:34:41;101221.73;;;-1.63;96.79
52185;BME280;38160;52.876;18.778;2023-03-03T02:37:19;101217.09;;;-1.66;96.74
52185;BME280;38160;52.876;18.778;2023-03-03T02:39:55;101220.27;;;-1.66;96.90
52185;BME280;38160;52.876;18.778;2023-03-03T02:42:32;101225.86;;;-1.65;96.88
52185;BME280;38160;52.876;18.778;2023-03-03T02:45:09;101225.26;;;-1.63;96.88
52185;BME280;38160;52.876;18.778;2023-03-03T02:47:50;101225.39;;;-1.62;96.85
52185;BME280;38160;52.876;18.778;2023-03-03T02:50:26;101219.59;;;-1.63;96.76
52185;BME280;38160;52.876;18.778;2023-03-03T02:53:02;101221.13;;;-1.66;96.65
52185;BME280;38160;52.876;18.778;2023-03-03T02:55:38;101223.39;;;-1.69;96.51
52185;BME280;38160;52.876;18.778;2023-03-03T02:58:14;101218.29;;;-1.73;96.47
52185;BME280;38160;52.876;18.778;2023-03-03T03:01:11;101216.18;;;-1.77;96.59
52185;BME280;38160;52.876;18.778;2023-03-03T03:03:47;101203.89;;;-1.78;96.73
52185;BME280;38160;52.876;18.778;2023-03-03T03:06:24;101200.23;;;-1.79;97.02
52185;BME280;38160;52.876;18.778;2023-03-03T03:09:01;101193.85;;;-1.78;97.05
52185;BME280;38160;52.876;18.778;2023-03-03T03:11:37;101193.59;;;-1.80;96.90
52185;BME280;38160;52.876;18.778;2023-03-03T03:14:14;101184.29;;;-1.81;96.66
52185;BME280;38160;52.876;18.778;2023-03-03T03:16:50;101196.75;;;-1.83;96.96
52185;BME280;38160;52.876;18.778;2023-03-03T03:19:28;101200.61;;;-1.83;97.08
52185;BME280;38160;52.876;18.778;2023-03-03T03:22:12;101193.00;;;-1.82;97.08
52185;BME280;38160;52.876;18.778;2023-03-03T03:24:48;101203.48;;;-1.80;97.29
52185;BME280;38160;52.876;18.778;2023-03-03T03:27:25;101196.51;;;-1.78;97.39
52185;BME280;38160;52.876;18.778;2023-03-03T03:30:05;101205.10;;;-1.77;97.35
52185;BME280;38160;52.876;18.778;2023-03-03T03:33:27;101201.48;;;-1.79;97.33
52185;BME280;38160;52.876;18.778;2023-03-03T03:36:04;101209.30;;;-1.80;97.50
52185;BME280;38160;52.876;18.778;2023-03-03T03:38:43;101208.04;;;-1.79;97.55
52185;BME280;38160;52.876;18.778;2023-03-03T03:41:19;101206.58;;;-1.82;97.66
52185;BME280;38160;52.876;18.778;2023-03-03T03:44:19;101206.55;;;-1.82;97.87
52185;BME280;38160;52.876;18.778;2023-03-03T03:46:58;101204.48;;;-1.79;97.92
52185;BME280;38160;52.876;18.778;2023-03-03T03:49:35;101201.80;;;-1.78;97.64
52185;BME280;38160;52.876;18.778;2023-03-03T03:52:12;101196.50;;;-1.82;97.60
52185;BME280;38160;52.876;18.778;2023-03-03T03:54:48;101186.17;;;-1.88;97.73
52185;BME280;38160;52.876;18.778;2023-03-03T03:57:24;101191.48;;;-1.88;98.13
52185;BME280;38160;52.876;18.778;2023-03-03T04:00:00;101194.28;;;-1.88;97.74
52185;BME280;38160;52.876;18.778;2023-03-03T04:02:37;101195.34;;;-1.88;98.27
52185;BME280;38160;52.876;18.778;2023-03-03T04:05:13;101189.81;;;-1.82;98.64
52185;BME280;38160;52.876;18.778;2023-03-03T04:07:50;101192.09;;;-1.78;98.03
52185;BME280;38160;52.876;18.778;2023-03-03T04:10:27;101187.16;;;-1.82;97.47
52185;BME280;38160;52.876;18.778;2023-03-03T04:13:03;101192.29;;;-1.87;97.58
52185;BME280;38160;52.876;18.778;2023-03-03T04:15:40;101192.58;;;-1.89;97.53
52185;BME280;38160;52.876;18.778;2023-03-03T04:18:17;101183.42;;;-1.89;97.95
52185;BME280;38160;52.876;18.778;2023-03-03T04:20:54;101184.41;;;-1.88;98.17
52185;BME280;38160;52.876;18.778;2023-03-03T04:23:31;101185.94;;;-1.87;97.88
52185;BME280;38160;52.876;18.778;2023-03-03T04:26:08;101182.63;;;-1.87;97.85
52185;BME280;38160;52.876;18.778;2023-03-03T04:28:45;101174.15;;;-1.87;98.03
52185;BME280;38160;52.876;18.778;2023-03-03T04:31:22;101180.48;;;-1.83;98.07
52185;BME280;38160;52.876;18.778;2023-03-03T04:33:59;101190.14;;;-1.81;98.06
52185;BME280;38160;52.876;18.778;2023-03-03T04:36:36;101189.11;;;-1.82;98.01
52185;BME280;38160;52.876;18.778;2023-03-03T04:39:12;101186.66;;;-1.83;97.95
52185;BME280;38160;52.876;18.778;2023-03-03T04:41:49;101181.16;;;-1.86;97.89
52185;BME280;38160;52.876;18.778;2023-03-03T04:44:26;101184.95;;;-1.88;97.67
52185;BME280;38160;52.876;18.778;2023-03-03T04:47:02;101190.91;;;-1.91;97.81
52185;BME280;38160;52.876;18.778;2023-03-03T04:49:39;101177.92;;;-1.96;97.71
52185;BME280;38160;52.876;18.778;2023-03-03T04:52:15;101175.48;;;-1.97;97.94
52185;BME280;38160;52.876;18.778;2023-03-03T04:54:51;101172.65;;;-1.97;98.26
52185;BME280;38160;52.876;18.778;2023-03-03T04:57:28;101167.89;;;-1.97;98.20
52185;BME280;38160;52.876;18.778;2023-03-03T05:00:06;101161.95;;;-1.98;98.57
52185;BME280;38160;52.876;18.778;2023-03-03T05:02:43;101171.66;;;-1.94;98.40
52185;BME280;38160;52.876;18.778;2023-03-03T05:05:20;101172.59;;;-1.95;98.44
52185;BME280;38160;52.876;18.778;2023-03-03T05:07:57;101162.76;;;-1.96;98.45
52185;BME280;38160;52.876;18.778;2023-03-03T05:10:33;101153.63;;;-1.97;98.49
52185;BME280;38160;52.876;18.778;2023-03-03T05:13:09;101161.58;;;-1.94;98.46
52185;BME280;38160;52.876;18.778;2023-03-03T05:15:50;101166.61;;;-1.92;98.85
52185;BME280;38160;52.876;18.778;2023-03-03T05:18:26;101171.61;;;-1.85;99.24
52185;BME280;38160;52.876;18.778;2023-03-03T05:21:03;101165.46;;;-1.82;99.13
52185;BME280;38160;52.876;18.778;2023-03-03T05:23:39;101164.60;;;-1.83;98.57
52185;BME280;38160;52.876;18.778;2023-03-03T05:26:15;101157.84;;;-1.85;98.90
52185;BME280;38160;52.876;18.778;2023-03-03T05:28:51;101160.01;;;-1.82;99.10
52185;BME280;38160;52.876;18.778;2023-03-03T05:31:27;101162.48;;;-1.79;99.08
52185;BME280;38160;52.876;18.778;2023-03-03T05:34:03;101156.55;;;-1.77;99.00
52185;BME280;38160;52.876;18.778;2023-03-03T05:36:39;101156.21;;;-1.73;98.74
52185;BME280;38160;52.876;18.778;2023-03-03T05:39:16;101169.77;;;-1.76;98.47
52185;BME280;38160;52.876;18.778;2023-03-03T05:41:52;101184.42;;;-1.80;98.59
52185;BME280;38160;52.876;18.778;2023-03-03T05:44:29;101182.52;;;-1.85;98.64
52185;BME280;38160;52.876;18.778;2023-03-03T05:47:07;101179.39;;;-1.86;98.87
52185;BME280;38160;52.876;18.778;2023-03-03T05:49:43;101174.74;;;-1.84;98.94
52185;BME280;38160;52.876;18.778;2023-03-03T05:52:19;101173.98;;;-1.87;98.72
52185;BME280;38160;52.876;18.778;2023-03-03T05:54:55;101176.40;;;-1.90;98.89
52185;BME280;38160;52.876;18.778;2023-03-03T05:57:32;101174.03;;;-1.88;99.08
52185;BME280;38160;52.876;18.778;2023-03-03T06:00:11;101171.27;;;-1.90;99.00
52185;BME280;38160;52.876;18.778;2023-03-03T06:02:47;101165.43;;;-1.89;98.96
52185;BME280;38160;52.876;18.778;2023-03-03T06:05:24;101163.02;;;-1.90;98.90
52185;BME280;38160;52.876;18.778;2023-03-03T06:08:00;101164.64;;;-1.91;99.08
52185;BME280;38160;52.876;18.778;2023-03-03T06:10:36;101164.41;;;-1.94;99.13
52185;BME280;38160;52.876;18.778;2023-03-03T06:13:15;101158.48;;;-1.95;99.35
52185;BME280;38160;52.876;18.778;2023-03-03T06:15:51;101153.39;;;-1.92;99.61
52185;BME280;38160;52.876;18.778;2023-03-03T06:18:27;101151.28;;;-1.88;99.55
52185;BME280;38160;52.876;18.778;2023-03-03T06:21:04;101147.80;;;-1.85;99.48
52185;BME280;38160;52.876;18.778;2023-03-03T06:23:40;101145.05;;;-1.87;98.93
52185;BME280;38160;52.876;18.778;2023-03-03T06:26:16;101149.02;;;-1.89;99.04
52185;BME280;38160;52.876;18.778;2023-03-03T06:28:52;101144.34;;;-1.87;99.09
52185;BME280;38160;52.876;18.778;2023-03-03T06:31:29;101143.20;;;-1.89;98.77
52185;BME280;38160;52.876;18.778;2023-03-03T06:34:05;101151.08;;;-1.88;99.34
52185;BME280;38160;52.876;18.778;2023-03-03T06:36:50;101154.99;;;-1.81;99.57
52185;BME280;38160;52.876;18.778;2023-03-03T06:39:27;101162.77;;;-1.77;99.25
52185;BME280;38160;52.876;18.778;2023-03-03T06:42:31;101158.50;;;-1.77;99.03
52185;BME280;38160;52.876;18.778;2023-03-03T06:45:09;101155.23;;;-1.75;99.11
52185;BME280;38160;52.876;18.778;2023-03-03T06:47:55;101164.30;;;-1.72;99.09
52185;BME280;38160;52.876;18.778;2023-03-03T06:50:32;101160.98;;;-1.73;99.04
52185;BME280;38160;52.876;18.778;2023-03-03T06:53:13;101161.77;;;-1.71;99.02
52185;BME280;38160;52.876;18.778;2023-03-03T06:55:50;101163.30;;;-1.70;99.20
52185;BME280;38160;52.876;18.778;2023-03-03T06:58:28;101166.16;;;-1.67;99.17
52185;BME280;38160;52.876;18.778;2023-03-03T07:01:14;101169.60;;;-1.65;99.18
52185;BME280;38160;52.876;18.778;2023-03-03T07:03:52;101180.78;;;-1.63;99.11
52185;BME280;38160;52.876;18.778;2023-03-03T07:06:28;101194.25;;;-1.64;99.19
52185;BME280;38160;52.876;18.778;2023-03-03T07:09:08;101196.57;;;-1.61;98.97
52185;BME280;38160;52.876;18.778;2023-03-03T07:11:50;101195.63;;;-1.63;98.95
52185;BME280;38160;52.876;18.778;2023-03-03T07:14:26;101194.74;;;-1.60;99.39
52185;BME280;38160;52.876;18.778;2023-03-03T07:17:09;101188.48;;;-1.58;98.90
52185;BME280;38160;52.876;18.778;2023-03-03T07:19:47;101187.77;;;-1.54;99.58
52185;BME280;38160;52.876;18.778;2023-03-03T07:22:25;101185.05;;;-1.53;99.21
52185;BME280;38160;52.876;18.778;2023-03-03T07:25:20;101175.15;;;-1.52;99.12
52185;BME280;38160;52.876;18.778;2023-03-03T07:28:10;101177.98;;;-1.49;99.45
52185;BME280;38160;52.876;18.778;2023-03-03T07:31:31;101189.39;;;-1.40;99.36
52185;BME280;38160;52.876;18.778;2023-03-03T07:34:20;101201.85;;;-1.35;99.41
52185;BME280;38160;52.876;18.778;2023-03-03T07:37:00;101202.70;;;-1.34;99.35
52185;BME280;38160;52.876;18.778;2023-03-03T07:39:39;101200.80;;;-1.35;99.36
52185;BME280;38160;52.876;18.778;2023-03-03T07:42:21;101200.19;;;-1.37;99.13
52185;BME280;38160;52.876;18.778;2023-03-03T07:45:27;101219.18;;;-1.43;99.18
52185;BME280;38160;52.876;18.778;2023-03-03T07:48:08;101232.83;;;-1.44;99.38
52185;BME280;38160;52.876;18.778;2023-03-03T07:50:51;101235.39;;;-1.46;99.36
52185;BME280;38160;52.876;18.778;2023-03-03T07:53:33;101241.20;;;-1.45;99.49
52185;BME280;38160;52.876;18.778;2023-03-03T07:56:19;101249.35;;;-1.42;99.93
52185;BME280;38160;52.876;18.778;2023-03-03T07:58:56;101247.30;;;-1.37;99.89
52185;BME280;38160;52.876;18.778;2023-03-03T08:02:00;101247.02;;;-1.34;99.80
52185;BME280;38160;52.876;18.778;2023-03-03T08:04:40;101250.95;;;-1.32;99.44
52185;BME280;38160;52.876;18.778;2023-03-03T08:07:18;101250.05;;;-1.31;99.64
52185;BME280;38160;52.876;18.778;2023-03-03T08:09:59;101255.66;;;-1.31;99.81
52185;BME280;38160;52.876;18.778;2023-03-03T08:12:39;101250.23;;;-1.28;99.67
52185;BME280;38160;52.876;18.778;2023-03-03T08:15:22;101248.04;;;-1.26;99.67
52185;BME280;38160;52.876;18.778;2023-03-03T08:18:01;101249.48;;;-1.27;99.77
52185;BME280;38160;52.876;18.778;2023-03-03T08:20:44;101250.40;;;-1.28;99.87
52185;BME280;38160;52.876;18.778;2023-03-03T08:23:21;101251.04;;;-1.26;100.00
52185;BME280;38160;52.876;18.778;2023-03-03T08:25:57;101247.59;;;-1.21;100.00
52185;BME280;38160;52.876;18.778;2023-03-03T08:28:33;101246.40;;;-1.14;100.00
52185;BME280;38160;52.876;18.778;2023-03-03T08:31:09;101247.57;;;-1.13;99.88
52185;BME280;38160;52.876;18.778;2023-03-03T08:33:46;101244.45;;;-1.10;99.96
52185;BME280;38160;52.876;18.778;2023-03-03T08:36:22;101244.34;;;-1.08;99.92
52185;BME280;38160;52.876;18.778;2023-03-03T08:38:58;101243.66;;;-1.09;99.67
52185;BME280;38160;52.876;18.778;2023-03-03T08:41:34;101244.87;;;-1.04;99.88
52185;BME280;38160;52.876;18.778;2023-03-03T08:44:11;101249.21;;;-0.99;99.94
52185;BME280;38160;52.876;18.778;2023-03-03T08:46:47;101250.45;;;-0.92;99.73
52185;BME280;38160;52.876;18.778;2023-03-03T08:49:23;101256.66;;;-0.89;99.47
52185;BME280;38160;52.876;18.778;2023-03-03T08:51:59;101254.92;;;-0.90;99.55
52185;BME280;38160;52.876;18.778;2023-03-03T08:54:35;101246.80;;;-0.86;99.51
52185;BME280;38160;52.876;18.778;2023-03-03T08:57:11;101240.34;;;-0.81;99.68
52185;BME280;38160;52.876;18.778;2023-03-03T08:59:47;101237.46;;;-0.76;99.51
52185;BME280;38160;52.876;18.778;2023-03-03T09:02:23;101238.36;;;-0.72;99.62
52185;BME280;38160;52.876;18.778;2023-03-03T09:04:59;101243.16;;;-0.63;99.88
52185;BME280;38160;52.876;18.778;2023-03-03T09:07:35;101247.59;;;-0.59;99.44
52185;BME280;38160;52.876;18.778;2023-03-03T09:10:13;101255.06;;;-0.60;99.39
52185;BME280;38160;52.876;18.778;2023-03-03T09:12:49;101253.67;;;-0.61;99.34
52185;BME280;38160;52.876;18.778;2023-03-03T09:15:27;101254.48;;;-0.56;99.39
52185;BME280;38160;52.876;18.778;2023-03-03T09:18:13;101246.73;;;-0.53;99.45
52185;BME280;38160;52.876;18.778;2023-03-03T09:20:50;101244.13;;;-0.54;99.33
52185;BME280;38160;52.876;18.778;2023-03-03T09:23:35;101242.72;;;-0.57;99.12
52185;BME280;38160;52.876;18.778;2023-03-03T09:26:23;101237.89;;;-0.60;99.55
52185;BME280;38160;52.876;18.778;2023-03-03T09:29:15;101231.73;;;-0.54;99.60
52185;BME280;38160;52.876;18.778;2023-03-03T09:31:54;101229.67;;;-0.51;99.52
52185;BME280;38160;52.876;18.778;2023-03-03T09:34:39;101223.27;;;-0.47;99.57
52185;BME280;38160;52.876;18.778;2023-03-03T09:37:22;101224.98;;;-0.43;99.62
52185;BME280;38160;52.876;18.778;2023-03-03T09:39:58;101227.88;;;-0.37;99.55
52185;BME280;38160;52.876;18.778;2023-03-03T09:42:52;101223.70;;;-0.32;99.67
52185;BME280;38160;52.876;18.778;2023-03-03T09:45:40;101219.10;;;-0.32;99.32
52185;BME280;38160;52.876;18.778;2023-03-03T09:48:56;101214.52;;;-0.29;99.45
52185;BME280;38160;52.876;18.778;2023-03-03T09:51:45;101217.56;;;-0.29;99.25
52185;BME280;38160;52.876;18.778;2023-03-03T09:54:42;101214.73;;;-0.33;99.21
52185;BME280;38160;52.876;18.778;2023-03-03T09:57:26;101212.86;;;-0.31;99.56
52185;BME280;38160;52.876;18.778;2023-03-03T10:00:14;101214.69;;;-0.29;99.59
52185;BME280;38160;52.876;18.778;2023-03-03T10:05:54;101209.08;;;-0.36;99.28
52185;BME280;38160;52.876;18.778;2023-03-03T10:08:47;101203.92;;;-0.35;99.31
52185;BME280;38160;52.876;18.778;2023-03-03T10:11:33;101201.85;;;-0.33;99.44
52185;BME280;38160;52.876;18.778;2023-03-03T10:14:26;101205.98;;;-0.27;99.58
52185;BME280;38160;52.876;18.778;2023-03-03T10:17:13;101204.16;;;-0.24;99.66
52185;BME280;38160;52.876;18.778;2023-03-03T10:20:03;101206.41;;;-0.19;99.48
52185;BME280;38160;52.876;18.778;2023-03-03T10:22:46;101208.63;;;-0.21;99.43
52185;BME280;38160;52.876;18.778;2023-03-03T10:25:38;101214.70;;;-0.18;99.31
52185;BME280;38160;52.876;18.778;2023-03-03T10:28:31;101214.68;;;-0.18;99.24
52185;BME280;38160;52.876;18.778;2023-03-03T10:31:22;101215.55;;;-0.21;99.01
52185;BME280;38160;52.876;18.778;2023-03-03T10:34:09;101215.86;;;-0.21;99.29
52185;BME280;38160;52.876;18.778;2023-03-03T10:36:56;101221.36;;;-0.14;99.32
52185;BME280;38160;52.876;18.778;2023-03-03T10:39:52;101218.17;;;-0.14;99.09
52185;BME280;38160;52.876;18.778;2023-03-03T10:42:50;101213.00;;;-0.13;98.76
52185;BME280;38160;52.876;18.778;2023-03-03T10:46:00;101218.55;;;-0.14;98.61
52185;BME280;38160;52.876;18.778;2023-03-03T10:48:47;101219.73;;;-0.16;98.90
52185;BME280;38160;52.876;18.778;2023-03-03T10:51:36;101219.21;;;-0.14;99.03
52185;BME280;38160;52.876;18.778;2023-03-03T10:54:27;101223.89;;;-0.08;99.14
52185;BME280;38160;52.876;18.778;2023-03-03T10:57:10;101222.21;;;-0.03;98.97
52185;BME280;38160;52.876;18.778;2023-03-03T10:59:59;101225.36;;;-0.03;98.94
52185;BME280;38160;52.876;18.778;2023-03-03T11:02:46;101222.06;;;-0.01;98.87
52185;BME280;38160;52.876;18.778;2023-03-03T11:05:33;101212.33;;;-0.01;99.15
52185;BME280;38160;52.876;18.778;2023-03-03T11:08:18;101213.01;;;0.00;98.90
52185;BME280;38160;52.876;18.778;2023-03-03T11:11:03;101202.66;;;0.01;99.20
52185;BME280;38160;52.876;18.778;2023-03-03T11:13:46;101197.98;;;0.13;99.23
52185;BME280;38160;52.876;18.778;2023-03-03T11:16:34;101194.60;;;0.20;99.39
52185;BME280;38160;52.876;18.778;2023-03-03T11:22:35;101183.86;;;0.29;98.97
52185;BME280;38160;52.876;18.778;2023-03-03T11:25:24;101185.09;;;0.32;99.01
52185;BME280;38160;52.876;18.778;2023-03-03T11:28:14;101178.59;;;0.31;99.08
52185;BME280;38160;52.876;18.778;2023-03-03T11:31:03;101168.38;;;0.36;99.31
52185;BME280;38160;52.876;18.778;2023-03-03T11:33:50;101166.85;;;0.48;99.49
52185;BME280;38160;52.876;18.778;2023-03-03T11:36:31;101170.02;;;0.54;98.90
52185;BME280;38160;52.876;18.778;2023-03-03T11:39:11;101172.36;;;0.53;99.03
52185;BME280;38160;52.876;18.778;2023-03-03T11:42:00;101171.99;;;0.57;98.77
52185;BME280;38160;52.876;18.778;2023-03-03T11:44:44;101171.55;;;0.59;98.71
52185;BME280;38160;52.876;18.778;2023-03-03T11:47:25;101174.38;;;0.62;98.70
52185;BME280;38160;52.876;18.778;2023-03-03T11:50:04;101174.25;;;0.65;98.22
52185;BME280;38160;52.876;18.778;2023-03-03T11:52:46;101173.23;;;0.67;98.60
52185;BME280;38160;52.876;18.778;2023-03-03T11:55:29;101174.02;;;0.68;98.48
52185;BME280;38160;52.876;18.778;2023-03-03T11:58:11;101168.09;;;0.67;98.39
52185;BME280;38160;52.876;18.778;2023-03-03T12:00:52;101164.46;;;0.65;98.42
52185;BME280;38160;52.876;18.778;2023-03-03T12:03:35;101163.74;;;0.62;98.51
52185;BME280;38160;52.876;18.778;2023-03-03T12:06:20;101161.42;;;0.66;98.42
52185;BME280;38160;52.876;18.778;2023-03-03T12:12:13;101161.45;;;0.71;98.49
52185;BME280;38160;52.876;18.778;2023-03-03T12:14:56;101162.10;;;0.72;98.55
52185;BME280;38160;52.876;18.778;2023-03-03T12:17:56;101163.93;;;0.74;98.40
52185;BME280;38160;52.876;18.778;2023-03-03T12:20:44;101163.38;;;0.75;98.16
52185;BME280;38160;52.876;18.778;2023-03-03T12:23:43;101160.02;;;0.72;98.26
52185;BME280;38160;52.876;18.778;2023-03-03T12:26:28;101158.88;;;0.70;98.29
52185;BME280;38160;52.876;18.778;2023-03-03T12:29:16;101154.98;;;0.70;98.47
52185;BME280;38160;52.876;18.778;2023-03-03T12:32:01;101146.91;;;0.71;98.26
52185;BME280;38160;52.876;18.778;2023-03-03T12:34:43;101149.89;;;0.72;98.30
52185;BME280;38160;52.876;18.778;2023-03-03T12:37:32;101146.19;;;0.75;98.47
52185;BME280;38160;52.876;18.778;2023-03-03T12:40:20;101142.73;;;0.82;98.31
52185;BME280;38160;52.876;18.778;2023-03-03T12:43:13;101140.67;;;0.84;98.08
52185;BME280;38160;52.876;18.778;2023-03-03T12:45:58;101141.52;;;0.85;98.25
52185;BME280;38160;52.876;18.778;2023-03-03T12:48:42;101144.80;;;0.87;97.82
52185;BME280;38160;52.876;18.778;2023-03-03T12:51:25;101141.68;;;0.86;97.89
52185;BME280;38160;52.876;18.778;2023-03-03T12:54:20;101144.79;;;0.87;97.83
52185;BME280;38160;52.876;18.778;2023-03-03T12:57:07;101146.59;;;0.83;97.86
52185;BME280;38160;52.876;18.778;2023-03-03T12:59:55;101139.06;;;0.82;97.73
52185;BME280;38160;52.876;18.778;2023-03-03T13:02:48;101136.38;;;0.79;97.85
52185;BME280;38160;52.876;18.778;2023-03-03T13:05:38;101133.64;;;0.77;97.94
52185;BME280;38160;52.876;18.778;2023-03-03T13:08:28;101137.20;;;0.74;97.54
52185;BME280;38160;52.876;18.778;2023-03-03T13:11:19;101134.67;;;0.66;98.00
52185;BME280;38160;52.876;18.778;2023-03-03T13:14:06;101137.39;;;0.65;98.20
52185;BME280;38160;52.876;18.778;2023-03-03T13:16:51;101135.78;;;0.68;98.37
52185;BME280;38160;52.876;18.778;2023-03-03T13:19:33;101138.88;;;0.70;98.32
52185;BME280;38160;52.876;18.778;2023-03-03T13:22:19;101126.39;;;0.68;97.98
52185;BME280;38160;52.876;18.778;2023-03-03T13:25:03;101121.67;;;0.70;98.11
52185;BME280;38160;52.876;18.778;2023-03-03T13:27:44;101120.13;;;0.69;97.98
52185;BME280;38160;52.876;18.778;2023-03-03T13:30:25;101119.23;;;0.67;97.74
52185;BME280;38160;52.876;18.778;2023-03-03T13:33:09;101117.73;;;0.65;97.80
52185;BME280;38160;52.876;18.778;2023-03-03T13:35:49;101109.48;;;0.67;98.05
52185;BME280;38160;52.876;18.778;2023-03-03T13:38:30;101109.54;;;0.66;97.73
52185;BME280;38160;52.876;18.778;2023-03-03T13:41:14;101105.32;;;0.65;98.03
52185;BME280;38160;52.876;18.778;2023-03-03T13:43:56;101102.67;;;0.65;97.74
52185;BME280;38160;52.876;18.778;2023-03-03T13:46:40;101101.64;;;0.61;97.92
52185;BME280;38160;52.876;18.778;2023-03-03T13:49:32;101099.99;;;0.62;98.19
52185;BME280;38160;52.876;18.778;2023-03-03T13:52:14;101094.92;;;0.61;98.21
52185;BME280;38160;52.876;18.778;2023-03-03T13:55:13;101096.71;;;0.64;98.09
52185;BME280;38160;52.876;18.778;2023-03-03T13:57:58;101087.11;;;0.65;97.74
52185;BME280;38160;52.876;18.778;2023-03-03T14:00:51;101088.38;;;0.64;97.93
52185;BME280;38160;52.876;18.778;2023-03-03T14:03:45;101083.44;;;0.67;97.92
52185;BME280;38160;52.876;18.778;2023-03-03T14:06:27;101077.94;;;0.67;97.70
52185;BME280;38160;52.876;18.778;2023-03-03T14:09:17;101074.21;;;0.64;97.72
52185;BME280;38160;52.876;18.778;2023-03-03T14:12:02;101075.58;;;0.65;97.80